createdAt,value
2018-06-25T05:19:33.403Z,100
2018-06-25T05:19:53.714Z,100
2018-06-25T05:20:14.076Z,100
2018-06-25T05:22:30.891Z,100
2018-06-25T05:22:51.099Z,100
2018-06-25T05:23:22.501Z,100
2018-06-25T05:23:42.939Z,100
2018-06-25T05:24:03.132Z,100
2018-06-25T05:24:23.396Z,100
2018-06-25T05:24:43.650Z,100
2018-06-25T05:25:03.891Z,100
2018-06-25T05:25:24.169Z,100
2018-06-25T05:25:44.498Z,100
2018-06-25T05:26:04.792Z,100
2018-06-25T05:26:25.192Z,100
2018-06-25T05:26:45.494Z,100
2018-06-25T05:27:05.744Z,100
2018-06-25T05:27:26.049Z,100
2018-06-25T05:27:46.412Z,100
2018-06-25T05:28:06.702Z,100
2018-06-25T05:28:26.920Z,100
2018-06-25T05:28:47.180Z,100
2018-06-25T05:29:07.488Z,100
2018-06-25T05:29:27.850Z,100
2018-06-25T05:29:48.184Z,100
2018-06-25T05:37:27.866Z,100
2018-06-25T05:37:48.115Z,100
2018-06-25T05:38:19.565Z,100
2018-06-25T05:38:39.833Z,100
2018-06-25T05:44:08.122Z,100
2018-06-25T05:46:23.538Z,100
2018-06-25T05:49:04.945Z,100
2018-06-25T05:50:09.396Z,100
2018-06-25T05:57:08.911Z,100
2018-06-25T05:58:13.452Z,100
2018-06-25T05:58:58.663Z,100
2018-06-25T05:59:18.942Z,100
2018-06-25T06:00:03.333Z,100
2018-06-25T06:00:23.578Z,100
2018-06-25T06:00:43.971Z,100
2018-06-25T06:01:04.265Z,100
2018-06-25T06:01:24.741Z,100
2018-06-25T06:01:45.001Z,100
2018-06-25T06:02:05.427Z,100
2018-06-25T06:02:25.712Z,100
2018-06-25T06:02:46.032Z,100
2018-06-25T06:03:06.338Z,100
2018-06-25T06:03:26.650Z,100
2018-06-25T06:03:46.966Z,100
2018-06-25T06:04:07.264Z,100
2018-06-25T06:04:27.684Z,100
2018-06-25T06:04:48.006Z,100
2018-06-25T06:05:08.306Z,100
2018-06-25T06:05:28.568Z,100
2018-06-25T06:06:56.588Z,100
2018-06-25T06:07:16.867Z,100
2018-06-25T06:08:01.110Z,100
2018-06-25T06:08:39.973Z,100
2018-06-25T06:09:12.336Z,100
2018-06-25T06:16:05.204Z,100
2018-06-25T06:17:03.366Z,100
2018-06-25T06:18:53.027Z,100
2018-06-25T06:19:13.251Z,100
2018-06-25T06:19:57.633Z,100
2018-06-25T06:20:17.971Z,100
2018-06-25T06:21:02.257Z,100
2018-06-25T06:21:22.479Z,100
2018-06-25T06:21:42.694Z,100
2018-06-25T06:22:02.972Z,100
2018-06-25T06:22:23.257Z,100
2018-06-25T06:22:43.595Z,100
2018-06-25T06:23:03.882Z,100
2018-06-25T06:23:24.169Z,100
2018-06-25T06:23:44.416Z,100
2018-06-25T06:28:27.991Z,100
2018-06-25T06:28:48.243Z,100
2018-06-25T06:29:08.509Z,100
2018-06-25T06:29:45.269Z,100
2018-06-25T06:30:05.555Z,100
2018-06-25T06:30:49.855Z,100
2018-06-25T06:31:10.083Z,100
2018-06-25T06:31:54.465Z,100
2018-06-25T06:32:14.765Z,100
2018-06-25T06:32:35.045Z,100
2018-06-25T06:32:55.341Z,100
2018-06-25T06:33:15.564Z,100
2018-06-25T06:33:35.792Z,100
2018-06-25T06:33:56.012Z,100
2018-06-25T06:34:16.270Z,100
2018-06-25T06:34:36.530Z,100
2018-06-25T06:34:56.782Z,100
2018-06-25T06:35:17.114Z,100
2018-06-25T06:35:37.397Z,100
2018-06-25T06:35:57.682Z,100
2018-06-25T06:36:18.016Z,100
2018-06-25T06:36:38.349Z,100
2018-06-25T06:36:58.727Z,100
2018-06-25T06:37:19.010Z,100
2018-06-25T06:37:39.436Z,100
2018-06-25T06:38:00.062Z,100
2018-06-25T06:38:20.528Z,100
2018-06-25T06:38:41.024Z,100
2018-06-25T06:39:01.356Z,100
2018-06-25T06:39:21.633Z,100
2018-06-25T06:39:41.921Z,100
2018-06-25T06:40:02.446Z,100
2018-06-25T06:40:22.775Z,100
2018-06-25T06:40:43.121Z,100
2018-06-25T06:41:03.435Z,100
2018-06-25T06:41:23.852Z,100
2018-06-25T06:41:44.175Z,100
2018-06-25T06:42:04.670Z,100
2018-06-25T06:42:25.073Z,100
2018-06-25T06:42:45.378Z,100
2018-06-25T06:43:05.793Z,100
2018-06-25T06:43:26.132Z,100
2018-06-25T06:43:46.430Z,100
2018-06-25T06:44:06.674Z,100
2018-06-25T06:44:27.046Z,100
2018-06-25T06:44:47.371Z,100
2018-06-25T06:45:07.689Z,100
2018-06-25T06:45:28.075Z,100
2018-06-25T06:45:48.294Z,100
2018-06-25T06:46:09.344Z,100
2018-06-25T06:46:29.720Z,100
2018-06-25T06:46:49.988Z,100
2018-06-25T06:47:10.335Z,100
2018-06-25T06:47:30.592Z,100
2018-06-25T06:47:50.889Z,100
2018-06-25T06:48:11.297Z,100
2018-06-25T06:48:31.645Z,100
2018-06-25T06:48:51.963Z,100
2018-06-25T06:49:12.262Z,100
2018-06-25T06:49:32.593Z,100
2018-06-25T06:49:52.891Z,100
2018-06-25T06:50:13.242Z,100
2018-06-25T06:50:33.525Z,100
2018-06-25T06:50:53.892Z,100
2018-06-25T06:51:14.170Z,100
2018-06-25T06:51:34.657Z,100
2018-06-25T06:51:55.069Z,100
2018-06-25T06:52:15.507Z,100
2018-06-25T06:52:36.037Z,100
2018-06-25T06:52:56.231Z,100
2018-06-25T06:53:16.615Z,100
2018-06-25T06:53:36.961Z,100
2018-06-25T06:53:57.923Z,100
2018-06-25T06:54:18.140Z,100
2018-06-25T06:54:38.508Z,100
2018-06-25T06:54:58.750Z,100
2018-06-25T06:55:19.172Z,100
2018-06-25T06:55:40.356Z,100
2018-06-25T06:56:00.910Z,100
2018-06-25T06:56:22.357Z,100
2018-06-25T06:56:42.698Z,100
2018-06-25T06:57:03.094Z,100
2018-06-25T06:57:23.430Z,100
2018-06-25T06:57:43.698Z,100
2018-06-25T06:58:04.233Z,100
2018-06-25T06:58:24.642Z,100
2018-06-25T06:58:45.870Z,100
2018-06-25T06:59:06.199Z,100
2018-06-25T06:59:26.519Z,100
2018-06-25T06:59:46.773Z,100
2018-06-25T07:00:07.051Z,100
2018-06-25T07:00:29.912Z,100
2018-06-25T07:00:50.347Z,100
2018-06-25T07:01:10.619Z,100
2018-06-25T07:01:31.100Z,100
2018-06-25T07:01:51.421Z,100
2018-06-25T07:02:11.833Z,100
2018-06-25T07:02:32.224Z,100
2018-06-25T07:02:52.694Z,100
2018-06-25T07:03:13.055Z,100
2018-06-25T07:03:33.360Z,100
2018-06-25T07:03:53.660Z,100
2018-06-25T07:04:14.036Z,100
2018-06-25T07:04:34.363Z,100
2018-06-25T07:04:54.617Z,100
2018-06-25T07:05:14.891Z,100
2018-06-25T07:05:35.218Z,100
2018-06-25T07:05:55.399Z,100
2018-06-25T07:06:15.633Z,100
2018-06-25T07:06:36.019Z,100
2018-06-25T07:06:56.386Z,100
2018-06-25T07:07:16.698Z,100
2018-06-25T07:07:37.058Z,100
2018-06-25T07:07:57.360Z,100
2018-06-25T07:08:17.707Z,100
2018-06-25T07:08:38.052Z,100
2018-06-25T07:08:58.339Z,100
2018-06-25T07:09:18.625Z,100
2018-06-25T07:09:38.897Z,100
2018-06-25T07:09:59.182Z,100
2018-06-25T07:10:19.572Z,100
2018-06-25T07:10:40.135Z,100
2018-06-25T07:11:00.532Z,100
2018-06-25T07:11:20.820Z,100
2018-06-25T07:11:41.204Z,100
2018-06-25T07:12:01.556Z,100
2018-06-25T07:12:21.896Z,100
2018-06-25T07:12:42.212Z,100
2018-06-25T07:13:02.608Z,100
2018-06-25T07:13:22.988Z,100
2018-06-25T07:13:43.355Z,100
2018-06-25T07:14:03.856Z,100
2018-06-25T07:14:24.237Z,100
2018-06-25T07:14:44.634Z,100
2018-06-25T07:15:05.186Z,100
2018-06-25T07:15:25.583Z,100
2018-06-25T07:15:45.890Z,100
2018-06-25T07:16:06.247Z,100
2018-06-25T07:16:26.573Z,100
2018-06-25T07:16:46.889Z,100
2018-06-25T07:17:07.244Z,100
2018-06-25T07:17:27.526Z,100
2018-06-25T07:17:47.860Z,100
2018-06-25T07:18:08.272Z,100
2018-06-25T07:18:28.869Z,100
2018-06-25T07:18:49.327Z,100
2018-06-25T07:19:09.796Z,100
2018-06-25T07:19:30.442Z,100
2018-06-25T07:19:50.968Z,100
2018-06-25T07:20:11.417Z,100
2018-06-25T07:20:31.835Z,100
2018-06-25T07:20:52.243Z,100
2018-06-25T07:21:12.694Z,100
2018-06-25T07:21:33.062Z,100
2018-06-25T07:21:53.335Z,100
2018-06-25T07:22:13.742Z,100
2018-06-25T07:22:34.228Z,100
2018-06-25T07:22:54.664Z,100
2018-06-25T07:23:14.945Z,100
2018-06-25T07:23:35.307Z,100
2018-06-25T07:23:55.735Z,100
2018-06-25T07:24:16.150Z,100
2018-06-25T07:24:36.657Z,100
2018-06-25T07:24:57.020Z,100
2018-06-25T07:25:17.676Z,100
2018-06-25T07:25:38.001Z,100
2018-06-25T07:25:58.383Z,100
2018-06-25T07:26:19.077Z,100
2018-06-25T07:26:39.586Z,100
2018-06-25T07:27:00.791Z,100
2018-06-25T07:27:21.343Z,100
2018-06-25T07:27:41.688Z,100
2018-06-25T07:28:02.093Z,100
2018-06-25T07:28:22.553Z,100
2018-06-25T07:28:43.129Z,100
2018-06-25T07:29:03.652Z,100
2018-06-25T07:29:24.218Z,100
2018-06-25T07:29:44.729Z,100
2018-06-25T07:30:05.104Z,100
2018-06-25T07:30:25.742Z,100
2018-06-25T07:30:46.067Z,100
2018-06-25T07:31:06.593Z,100
2018-06-25T07:31:27.775Z,100
2018-06-25T07:31:48.408Z,100
2018-06-25T07:32:08.799Z,100
2018-06-25T07:32:29.304Z,100
2018-06-25T07:32:49.840Z,100
2018-06-25T07:33:10.269Z,100
2018-06-25T07:33:30.709Z,100
2018-06-25T07:33:51.150Z,100
2018-06-25T07:34:11.467Z,100
2018-06-25T07:34:31.928Z,100
2018-06-25T07:34:52.336Z,100
2018-06-25T07:35:12.686Z,100
2018-06-25T07:35:33.097Z,100
2018-06-25T07:35:53.564Z,100
2018-06-25T07:36:14.128Z,98.7
2018-06-25T07:36:34.682Z,97.2
2018-06-25T07:36:55.659Z,98
2018-06-25T07:37:16.593Z,99
2018-06-25T07:37:38.429Z,99.1
2018-06-25T07:37:59.534Z,100
2018-06-25T07:38:20.670Z,100
2018-06-25T07:38:41.872Z,100
2018-06-25T07:39:02.715Z,100
2018-06-25T07:39:23.809Z,100
2018-06-25T07:39:44.560Z,100
2018-06-25T07:40:05.353Z,99.9
2018-06-25T07:40:26.792Z,98.6
2018-06-25T07:40:47.841Z,99.2
2018-06-25T07:41:08.827Z,99
2018-06-25T07:41:30.938Z,98.9
2018-06-25T07:41:51.950Z,99
2018-06-25T07:42:12.733Z,96.8
2018-06-25T07:42:33.677Z,96.7
2018-06-25T07:42:54.753Z,97.3
2018-06-25T07:43:15.446Z,97.7
2018-06-25T07:43:36.004Z,99.6
2018-06-25T07:43:56.651Z,100
2018-06-25T07:44:17.383Z,100
2018-06-25T07:44:38.135Z,98.5
2018-06-25T07:44:58.958Z,97.1
2018-06-25T07:45:20.668Z,98.3
2018-06-25T07:45:41.203Z,98.6
2018-06-25T07:46:01.686Z,99
2018-06-25T07:46:22.286Z,99
2018-06-25T07:46:42.828Z,100
2018-06-25T07:47:03.412Z,99.9
2018-06-25T07:47:24.151Z,100
2018-06-25T07:47:45.377Z,100
2018-06-25T07:48:06.128Z,99.5
2018-06-25T07:48:26.689Z,99.1
2018-06-25T07:48:47.463Z,98.1
2018-06-25T07:49:08.179Z,97.7
2018-06-25T07:49:28.688Z,97.2
2018-06-25T07:49:49.407Z,98.5
2018-06-25T07:50:10.378Z,98.3
2018-06-25T07:50:30.960Z,99.5
2018-06-25T07:50:51.639Z,100
2018-06-25T07:51:12.175Z,100
2018-06-25T07:51:32.759Z,99.9
2018-06-25T07:51:53.463Z,99.7
2018-06-25T07:52:14.269Z,99.7
2018-06-25T07:52:35.556Z,99.7
2018-06-25T07:52:56.716Z,99.8
2018-06-25T07:53:17.987Z,97.7
2018-06-25T07:53:39.277Z,97.5
2018-06-25T07:53:59.802Z,97.3
2018-06-25T07:54:20.831Z,97.1
2018-06-25T07:54:41.728Z,96.8
2018-06-25T07:55:02.373Z,98
2018-06-25T07:55:23.016Z,99.4
2018-06-25T07:55:44.646Z,99.5
2018-06-25T07:56:05.601Z,98
2018-06-25T07:56:26.086Z,98.1
2018-06-25T07:56:46.526Z,98
2018-06-25T07:57:07.263Z,98.4
2018-06-25T07:57:28.576Z,98.6
2018-06-25T07:57:49.129Z,99.1
2018-06-25T07:58:09.685Z,99.5
2018-06-25T07:58:30.531Z,98.1
2018-06-25T07:58:51.260Z,97.4
2018-06-25T07:59:12.108Z,98.7
2018-06-25T07:59:33.146Z,99.1
2018-06-25T07:59:54.150Z,99.2
2018-06-25T08:00:15.015Z,98.7
2018-06-25T08:00:36.040Z,98.1
2018-06-25T08:00:57.043Z,98.1
2018-06-25T08:01:18.161Z,98.4
2018-06-25T08:01:39.104Z,98.7
2018-06-25T08:02:00.142Z,99.2
2018-06-25T08:02:21.227Z,98.9
2018-06-25T08:02:42.384Z,98.5
2018-06-25T08:03:03.066Z,98.2
2018-06-25T08:03:24.016Z,98.7
2018-06-25T08:03:45.161Z,98
2018-06-25T08:04:06.088Z,97.4
2018-06-25T08:04:28.822Z,97.1
2018-06-25T08:04:49.674Z,97.1
2018-06-25T08:05:10.692Z,96.2
2018-06-25T08:05:31.735Z,96.4
2018-06-25T08:05:53.011Z,96
2018-06-25T08:06:14.163Z,96.1
2018-06-25T08:06:35.057Z,95.1
2018-06-25T08:06:56.205Z,95.4
2018-06-25T08:07:17.421Z,96.7
2018-06-25T08:07:39.508Z,98.2
2018-06-25T08:08:00.430Z,97.9
2018-06-25T08:08:21.357Z,97.5
2018-06-25T08:08:42.104Z,98.7
2018-06-25T08:09:03.192Z,98.4
2018-06-25T08:09:24.133Z,98.6
2018-06-25T08:09:45.307Z,99.1
2018-06-25T08:10:06.539Z,99.9
2018-06-25T08:10:27.524Z,100
2018-06-25T08:10:48.336Z,100
2018-06-25T08:11:09.722Z,99.8
2018-06-25T08:11:30.459Z,99.8
2018-06-25T08:11:51.383Z,99.8
2018-06-25T08:12:12.099Z,100
2018-06-25T08:12:33.210Z,100
2018-06-25T08:12:53.656Z,99.6
2018-06-25T08:13:14.679Z,99.6
2018-06-25T08:13:35.315Z,99.9
2018-06-25T08:13:56.138Z,100
2018-06-25T08:14:16.647Z,100
2018-06-25T08:14:37.309Z,100
2018-06-25T08:14:57.970Z,100
2018-06-25T08:15:20.245Z,100
2018-06-25T08:15:41.362Z,100
2018-06-25T08:16:01.829Z,100
2018-06-25T08:16:22.620Z,100
2018-06-25T08:16:43.857Z,100
2018-06-25T08:17:04.672Z,99.1
2018-06-25T08:17:25.809Z,98.3
2018-06-25T08:17:46.844Z,98
2018-06-25T08:18:07.978Z,96.9
2018-06-25T08:18:29.178Z,95.6
2018-06-25T08:18:50.224Z,94.9
2018-06-25T08:19:11.450Z,95.3
2018-06-25T08:19:32.563Z,94.6
2018-06-25T08:19:53.807Z,95.6
2018-06-25T08:20:15.151Z,96.9
2018-06-25T08:20:37.367Z,96.9
2018-06-25T08:20:58.540Z,97
2018-06-25T08:21:19.666Z,96.5
2018-06-25T08:21:40.632Z,96.5
2018-06-25T08:22:01.511Z,95.2
2018-06-25T08:22:22.398Z,95
2018-06-25T08:22:43.315Z,95.7
2018-06-25T08:23:04.289Z,95.4
2018-06-25T08:23:25.183Z,94.9
2018-06-25T08:23:45.927Z,94.6
2018-06-25T08:24:06.822Z,93.2
2018-06-25T08:24:27.745Z,93.9
2018-06-25T08:24:48.471Z,94.6
2018-06-25T08:25:09.064Z,95
2018-06-25T08:25:29.664Z,95.1
2018-06-25T08:25:50.196Z,95.3
2018-06-25T08:26:10.757Z,94.4
2018-06-25T08:26:31.348Z,93.6
2018-06-25T08:26:52.251Z,93
2018-06-25T08:27:12.873Z,93.2
2018-06-25T08:27:33.489Z,94
2018-06-25T08:27:53.902Z,93.4
2018-06-25T08:28:15.308Z,92.5
2018-06-25T08:28:36.649Z,92.1
2018-06-25T08:28:57.338Z,92.7
2018-06-25T08:29:17.996Z,92.4
2018-06-25T08:29:38.249Z,91.7
2018-06-25T08:29:58.592Z,91.6
2018-06-25T08:30:19.054Z,90.5
2018-06-25T08:30:39.603Z,90.5
2018-06-25T08:31:00.383Z,90.7
2018-06-25T08:31:21.236Z,92.5
2018-06-25T08:31:42.107Z,93.5
2018-06-25T08:32:02.823Z,93.8
2018-06-25T08:32:23.746Z,94.1
2018-06-25T08:32:44.559Z,94.1
2018-06-25T08:33:06.560Z,93.9
2018-06-25T08:33:28.304Z,94.3
2018-06-25T08:33:49.392Z,94.5
2018-06-25T08:34:11.016Z,95.5
2018-06-25T08:34:32.520Z,95.5
2018-06-25T08:34:53.165Z,95.9
2018-06-25T08:35:13.749Z,95.6
2018-06-25T08:35:34.159Z,95.6
2018-06-25T08:35:54.467Z,95.6
2018-06-25T08:36:15.133Z,95.6
2018-06-25T08:36:36.525Z,95.3
2018-06-25T08:36:58.246Z,94.4
2018-06-25T08:37:19.351Z,91.6
2018-06-25T08:37:39.780Z,89.3
2018-06-25T08:38:00.047Z,88.8
2018-06-25T08:38:20.395Z,87.4
2018-06-25T08:38:40.870Z,87.3
2018-06-25T08:39:01.430Z,87.3
2018-06-25T08:39:21.698Z,87.4
2018-06-25T08:39:42.288Z,87.3
2018-06-25T08:40:02.954Z,87.1
2018-06-25T08:40:23.778Z,87.4
2018-06-25T08:40:44.117Z,89.3
2018-06-25T08:41:04.438Z,88.7
2018-06-25T08:41:25.179Z,86.5
2018-06-25T08:41:45.826Z,86.7
2018-06-25T08:42:07.153Z,87.4
2018-06-25T08:42:28.593Z,87.8
2018-06-25T08:42:49.665Z,88.8
2018-06-25T08:43:10.583Z,89.8
2018-06-25T08:43:31.787Z,91.5
2018-06-25T08:43:52.689Z,93.4
2018-06-25T08:44:13.503Z,92.9
2018-06-25T08:44:34.181Z,91.7
2018-06-25T08:44:55.249Z,93.6
2018-06-25T08:45:16.077Z,94.5
2018-06-25T08:45:36.619Z,94
2018-06-25T08:45:57.518Z,92.2
2018-06-25T08:46:18.426Z,92
2018-06-25T08:46:39.461Z,90.5
2018-06-25T08:47:00.334Z,89.7
2018-06-25T08:47:21.022Z,89.3
2018-06-25T08:47:42.021Z,89.5
2018-06-25T08:48:04.139Z,89.1
2018-06-25T08:48:25.083Z,89.2
2018-06-25T08:48:46.407Z,88.7
2018-06-25T08:49:07.273Z,88.6
2018-06-25T08:49:28.651Z,89.7
2018-06-25T08:49:49.704Z,90.6
2018-06-25T08:50:11.129Z,90.3
2018-06-25T08:50:32.466Z,90.3
2018-06-25T08:50:53.478Z,90.5
2018-06-25T08:51:14.313Z,90
2018-06-25T08:51:36.122Z,88.3
2018-06-25T08:51:57.146Z,88.2
2018-06-25T08:52:18.724Z,88.7
2018-06-25T08:52:39.892Z,88.7
2018-06-25T08:53:01.012Z,89.2
2018-06-25T08:53:22.331Z,89.3
2018-06-25T08:53:43.785Z,88.9
2018-06-25T08:54:05.154Z,88.1
2018-06-25T08:54:25.946Z,88.6
2018-06-25T08:54:47.053Z,87.3
2018-06-25T08:55:08.071Z,87.8
2018-06-25T08:55:28.828Z,89.3
2018-06-25T08:55:49.795Z,90.6
2018-06-25T08:56:10.655Z,90.2
2018-06-25T08:56:31.597Z,90.7
2018-06-25T08:56:52.279Z,91.3
2018-06-25T08:57:13.776Z,91.8
2018-06-25T08:57:35.651Z,91.3
2018-06-25T08:57:56.452Z,90.4
2018-06-25T08:58:18.315Z,92.3
2018-06-25T08:58:39.427Z,92
2018-06-25T08:59:00.218Z,90.4
2018-06-25T08:59:21.297Z,90.1
2018-06-25T08:59:42.316Z,87.8
2018-06-25T09:00:03.939Z,87.5
2018-06-25T09:00:25.491Z,88.5
2018-06-25T09:00:46.471Z,89
2018-06-25T09:01:07.365Z,88.9
2018-06-25T09:01:27.987Z,88.9
2018-06-25T09:01:48.759Z,89.2
2018-06-25T09:02:09.693Z,89.3
2018-06-25T09:02:30.258Z,90
2018-06-25T09:02:51.006Z,90.3
2018-06-25T09:03:12.840Z,89.5
2018-06-25T09:03:33.918Z,89.4
2018-06-25T09:03:55.220Z,89.1
2018-06-25T09:04:16.084Z,89.8
2018-06-25T09:04:37.420Z,89.8
2018-06-25T09:04:58.295Z,90.2
2018-06-25T09:05:20.403Z,90.8
2018-06-25T09:05:41.326Z,90.6
2018-06-25T09:06:02.412Z,90.5
2018-06-25T09:06:24.196Z,89.7
2018-06-25T09:06:45.505Z,90.3
2018-06-25T09:07:06.353Z,90.4
2018-06-25T09:07:27.512Z,89.4
2018-06-25T09:07:48.102Z,89.2
2018-06-25T09:08:09.903Z,89.7
2018-06-25T09:08:31.595Z,90.2
2018-06-25T09:08:53.643Z,90.7
2018-06-25T09:09:14.986Z,90.4
2018-06-25T09:09:35.945Z,89.4
2018-06-25T09:09:59.006Z,90
2018-06-25T09:10:20.824Z,89.8
2018-06-25T09:10:41.292Z,90
2018-06-25T09:11:02.385Z,90
2018-06-25T09:11:23.527Z,90.8
2018-06-25T09:11:44.184Z,89.8
2018-06-25T09:12:04.824Z,89.9
2018-06-25T09:12:26.573Z,89.7
2018-06-25T09:12:47.619Z,90.9
2018-06-25T09:13:08.400Z,91.2
2018-06-25T09:13:29.527Z,91.6
2018-06-25T09:13:50.039Z,91.4
2018-06-25T09:14:10.805Z,91.8
2018-06-25T09:14:31.579Z,91.8
2018-06-25T09:14:53.458Z,92.2
2018-06-25T09:15:14.225Z,91.7
2018-06-25T09:15:34.944Z,91.2
2018-06-25T09:15:57.509Z,91
2018-06-25T09:16:18.193Z,91.7
2018-06-25T09:16:38.974Z,92.5
2018-06-25T09:16:59.633Z,91.3
2018-06-25T09:17:20.221Z,90.9
2018-06-25T09:17:42.144Z,91.7
2018-06-25T09:18:03.198Z,91.2
2018-06-25T09:18:23.934Z,89.3
2018-06-25T09:18:44.714Z,90.3
2018-06-25T09:19:05.488Z,90.9
2018-06-25T09:19:26.479Z,91.9
2018-06-25T09:19:47.269Z,92.4
2018-06-25T09:20:08.480Z,91.9
2018-06-25T09:20:29.529Z,91.9
2018-06-25T09:20:50.588Z,91.2
2018-06-25T09:21:11.689Z,91.3
2018-06-25T09:21:32.641Z,91.3
2018-06-25T09:21:53.547Z,92.6
2018-06-25T09:22:14.866Z,92.4
2018-06-25T09:22:35.525Z,92.4
2018-06-25T09:22:56.372Z,92.7
2018-06-25T09:23:17.073Z,92.8
2018-06-25T09:23:37.719Z,91.9
2018-06-25T09:23:58.744Z,90.5
2018-06-25T09:24:20.668Z,89.2
2018-06-25T09:24:41.831Z,89.7
2018-06-25T09:25:02.769Z,90.3
2018-06-25T09:25:24.070Z,90.7
2018-06-25T09:25:44.894Z,91
2018-06-25T09:26:05.667Z,91.5
2018-06-25T09:26:26.073Z,91
2018-06-25T09:26:48.038Z,92.2
2018-06-25T09:27:09.285Z,92.1
2018-06-25T09:27:30.154Z,91.8
2018-06-25T09:27:51.568Z,91.6
2018-06-25T09:28:13.552Z,90.9
2018-06-25T09:28:34.691Z,91.8
2018-06-25T09:28:55.205Z,91.5
2018-06-25T09:29:15.860Z,91.4
2018-06-25T09:29:38.145Z,92.2
2018-06-25T09:29:59.403Z,92.1
2018-06-25T09:30:20.944Z,92
2018-06-25T09:30:41.795Z,90.7
2018-06-25T09:31:02.888Z,90.4
2018-06-25T09:31:24.185Z,90.9
2018-06-25T09:31:45.283Z,90.6
2018-06-25T09:32:07.848Z,91
2018-06-25T09:32:28.657Z,91.1
2018-06-25T09:32:49.553Z,91.2
2018-06-25T09:33:10.661Z,91.2
2018-06-25T09:33:32.308Z,90.9
2018-06-25T09:33:52.953Z,90.7
2018-06-25T09:34:14.261Z,91.2
2018-06-25T09:34:35.839Z,90.9
2018-06-25T09:34:56.133Z,91.1
2018-06-25T09:35:16.891Z,90.6
2018-06-25T09:35:38.753Z,89.8
2018-06-25T09:36:00.292Z,90
2018-06-25T09:36:21.325Z,90.3
2018-06-25T09:36:42.342Z,92
2018-06-25T09:37:03.196Z,91.2
2018-06-25T09:37:24.762Z,90.6
2018-06-25T09:37:45.280Z,91.2
2018-06-25T09:38:07.051Z,91.1
2018-06-25T09:38:27.752Z,91.3
2018-06-25T09:38:49.091Z,91.9
2018-06-25T09:39:10.197Z,91.5
2018-06-25T09:39:30.982Z,91.7
2018-06-25T09:39:52.277Z,91.1
2018-06-25T09:40:13.040Z,91.5
2018-06-25T09:40:33.916Z,92
2018-06-25T09:40:55.417Z,91.8
2018-06-25T09:41:16.696Z,90.2
2018-06-25T09:41:37.711Z,90.4
2018-06-25T09:41:58.158Z,91.8
2018-06-25T09:42:19.099Z,90.8
2018-06-25T09:42:40.286Z,90.4
2018-06-25T09:43:01.027Z,90.3
2018-06-25T09:43:22.156Z,90.7
2018-06-25T09:43:43.708Z,91
2018-06-25T09:44:04.632Z,92
2018-06-25T09:44:25.590Z,91.4
2018-06-25T09:44:46.268Z,91.9
2018-06-25T09:45:07.045Z,91.4
2018-06-25T09:45:27.778Z,91.4
2018-06-25T09:45:49.725Z,91.2
2018-06-25T09:46:10.661Z,91.3
2018-06-25T09:46:32.136Z,91.4
2018-06-25T09:46:52.982Z,92.2
2018-06-25T09:47:14.047Z,92.2
2018-06-25T09:47:34.738Z,92.2
2018-06-25T09:47:56.258Z,92.1
2018-06-25T09:48:17.281Z,91.7
2018-06-25T09:48:42.828Z,91.6
2018-06-25T09:49:03.635Z,92
2018-06-25T09:49:24.469Z,90.7
2018-06-25T09:49:45.421Z,90.1
2018-06-25T09:50:07.159Z,91.2
2018-06-25T09:50:27.752Z,89.9
2018-06-25T09:50:49.231Z,89.9
2018-06-25T09:51:10.041Z,90.7
2018-06-25T09:51:30.505Z,91
2018-06-25T09:51:50.826Z,91.3
2018-06-25T09:52:11.517Z,91.2
2018-06-25T09:52:32.570Z,91.6
2018-06-25T09:52:53.789Z,91.5
2018-06-25T09:53:14.191Z,92.2
2018-06-25T09:53:34.524Z,91.6
2018-06-25T09:53:56.755Z,91.9
2018-06-25T09:54:18.255Z,92.2
2018-06-25T09:54:39.927Z,92.6
2018-06-25T09:55:01.611Z,92.3
2018-06-25T09:55:21.796Z,91.6
2018-06-25T09:55:42.266Z,91.6
2018-06-25T09:56:02.672Z,92
2018-06-25T09:56:25.760Z,92.2
2018-06-25T09:56:46.111Z,92.1
2018-06-25T09:57:06.584Z,91.6
2018-06-25T09:57:27.056Z,91.2
2018-06-25T09:57:47.514Z,91.6
2018-06-25T09:58:09.800Z,92.6
2018-06-25T09:58:30.232Z,92.7
2018-06-25T09:58:50.759Z,92.6
2018-06-25T09:59:11.532Z,91.8
2018-06-25T09:59:32.774Z,92.2
2018-06-25T09:59:53.535Z,91.6
2018-06-25T10:00:14.256Z,90.7
2018-06-25T10:00:34.701Z,91.1
2018-06-25T10:00:55.169Z,91.2
2018-06-25T10:01:15.425Z,91.4
2018-06-25T10:01:36.223Z,90.7
2018-06-25T10:01:56.725Z,90.2
2018-06-25T10:02:17.203Z,89.8
2018-06-25T10:02:38.256Z,89.8
2018-06-25T10:02:58.642Z,90.3
2018-06-25T10:03:19.039Z,89.3
2018-06-25T10:03:39.561Z,89.6
2018-06-25T10:04:00.727Z,89.8
2018-06-25T10:04:22.773Z,90.7
2018-06-25T10:04:43.304Z,91.2
2018-06-25T10:05:03.587Z,90.7
2018-06-25T10:05:23.855Z,91.2
2018-06-25T10:05:44.782Z,91.3
2018-06-25T10:06:05.056Z,90.9
2018-06-25T10:06:26.773Z,91.8
2018-06-25T10:06:47.402Z,91.8
2018-06-25T10:07:07.967Z,91.2
2018-06-25T10:07:28.514Z,91.9
2018-06-25T10:07:49.714Z,91.2
2018-06-25T10:08:10.150Z,91.4
2018-06-25T10:08:30.494Z,91.9
2018-06-25T10:08:51.050Z,92.3
2018-06-25T10:09:11.230Z,91.8
2018-06-25T10:09:31.527Z,90.7
2018-06-25T10:09:52.634Z,90.6
2018-06-25T10:10:14.496Z,90.6
2018-06-25T10:10:36.548Z,90.9
2018-06-25T10:10:57.224Z,89.9
2018-06-25T10:11:17.539Z,89.7
2018-06-25T10:11:38.115Z,89.8
2018-06-25T10:11:58.711Z,89.1
2018-06-25T10:12:19.267Z,89.8
2018-06-25T10:12:39.758Z,89.2
2018-06-25T10:13:00.697Z,88.8
2018-06-25T10:13:21.462Z,89.4
2018-06-25T10:13:44.301Z,89.7
2018-06-25T10:14:04.493Z,88.9
2018-06-25T10:14:25.786Z,89.3
2018-06-25T10:14:46.146Z,89.6
2018-06-25T10:15:06.500Z,90.2
2018-06-25T10:15:26.701Z,90.6
2018-06-25T10:15:47.390Z,90.6
2018-06-25T10:16:07.720Z,90.4
2018-06-25T10:16:28.014Z,88.5
2018-06-25T10:16:48.312Z,87.8
2018-06-25T10:17:08.571Z,88.7
2018-06-25T10:17:28.609Z,89.6
2018-06-25T10:17:48.835Z,89.6
2018-06-25T10:18:09.188Z,89.2
2018-06-25T10:18:31.785Z,87.9
2018-06-25T10:18:52.307Z,89.3
2018-06-25T10:19:13.215Z,90.6
2018-06-25T10:19:34.055Z,89.8
2018-06-25T10:19:54.282Z,89.1
2018-06-25T10:20:15.352Z,89.6
2018-06-25T10:20:35.795Z,89.8
2018-06-25T10:20:56.553Z,90.2
2018-06-25T10:21:18.223Z,89.8
2018-06-25T10:21:38.624Z,89.9
2018-06-25T10:21:59.878Z,89.2
2018-06-25T10:22:21.023Z,89.6
2018-06-25T10:22:41.396Z,88.6
2018-06-25T10:23:01.749Z,88.1
2018-06-25T10:23:22.606Z,88.5
2018-06-25T10:23:42.819Z,88.5
2018-06-25T10:24:03.068Z,88.6
2018-06-25T10:24:24.250Z,87.8
2018-06-25T10:24:44.549Z,87.6
2018-06-25T10:25:05.826Z,87.5
2018-06-25T10:25:26.332Z,88.1
2018-06-25T10:25:47.286Z,89
2018-06-25T10:26:07.634Z,88.7
2018-06-25T10:26:28.972Z,89.2
2018-06-25T10:26:49.726Z,89
2018-06-25T10:27:10.515Z,88.9
2018-06-25T10:27:31.226Z,88.4
2018-06-25T10:27:51.712Z,88.2
2018-06-25T10:28:12.041Z,88.8
2018-06-25T10:28:32.769Z,88.9
2018-06-25T10:28:53.234Z,88.2
2018-06-25T10:29:13.666Z,86.9
2018-06-25T10:29:34.024Z,87.6
2018-06-25T10:29:54.401Z,88.5
2018-06-25T10:30:14.688Z,88.7
2018-06-25T10:30:35.996Z,89.5
2018-06-25T10:30:56.485Z,89.3
2018-06-25T10:31:16.893Z,89.3
2018-06-25T10:31:38.543Z,88.2
2018-06-25T10:31:59.116Z,88.1
2018-06-25T10:32:19.740Z,89
2018-06-25T10:32:40.497Z,88.9
2018-06-25T10:33:00.867Z,89
2018-06-25T10:33:21.845Z,88.9
2018-06-25T10:33:42.230Z,88.3
2018-06-25T10:34:02.811Z,87.6
2018-06-25T10:34:23.882Z,87.6
2018-06-25T10:34:44.497Z,87.9
2018-06-25T10:35:06.180Z,88.8
2018-06-25T10:35:26.516Z,88.7
2018-06-25T10:35:47.888Z,88
2018-06-25T10:36:08.399Z,87.9
2018-06-25T10:36:28.961Z,88.1
2018-06-25T10:36:49.675Z,88
2018-06-25T10:37:10.168Z,87.1
2018-06-25T10:37:30.819Z,86.4
2018-06-25T10:37:51.476Z,86
2018-06-25T10:38:11.870Z,86.9
2018-06-25T10:38:32.934Z,87.2
2018-06-25T10:38:54.482Z,87.9
2018-06-25T10:39:14.827Z,87.5
2018-06-25T10:39:34.819Z,87.8
2018-06-25T10:39:55.150Z,87.8
2018-06-25T10:40:15.775Z,87.4
2018-06-25T10:40:37.895Z,87.1
2018-06-25T10:40:58.252Z,86.4
2018-06-25T10:41:18.566Z,85.8
2018-06-25T10:41:38.821Z,86
2018-06-25T10:41:59.100Z,85.8
2018-06-25T10:42:19.477Z,86.1
2018-06-25T10:42:40.680Z,85.9
2018-06-25T10:43:01.133Z,85.8
2018-06-25T10:43:21.376Z,85.9
2018-06-25T10:43:42.821Z,85.9
2018-06-25T10:44:03.495Z,86.2
2018-06-25T10:44:24.875Z,86.1
2018-06-25T10:44:45.353Z,86.5
2018-06-25T10:45:05.663Z,86.2